SRCO2: Rock Creek nr Sulphur 2SW

Data processed at Fri May 18 2018 23:56


All information presented herein is the property of the government of the United States of America and may be revised or deleted at any time without prior notice.
Dissemination of this information without the expressed written consent of the Public Affairs Office, Tulsa District U.S. Army Corps of Engineers is strictly prohibited.
These data are gathered electronically and, as presented, have not undergone any form of quality control. These data are not guaranteed to be valid or correct.
Go to home page.
Go to station list.

Downstream station:


Previous Day
Next Day
Current Day
    
SHEF ID:       SRCO2     Rock Creek at Sulphur, OK
STATION TYPE:  

                STAGE  RIV-FLOW  BAT-LOAD
                   ft       cfs      volt
              Ccp-Rev   Ccp-Rev   Ccp-Rev
(US/Central)
05/16 00:00      7.68       255     12.65
05/16 01:00      7.44       218     12.65
05/16 02:00      7.47       222     12.57
05/16 03:00      7.29       196     12.57
05/16 04:00      7.17       179     12.57
05/16 05:00      7.18       181     12.57
05/16 06:00      7.07       166     12.49
05/16 07:00      7.05       164     12.49
05/16 08:00      6.93       149     12.73
05/16 09:00      6.94       151     12.97
05/16 10:00      7.20       183     13.29
05/16 11:00      6.99       157     13.29
05/16 12:00      6.92       148     13.68
05/16 13:00      6.81       136     13.44
05/16 14:00      6.77       132     13.29
05/16 15:00      6.80       135     13.68
05/16 16:00      6.93       149     13.60
05/16 17:00      6.62       114     13.60
05/16 18:00      6.63       115     13.60
05/16 19:00      6.76       131     13.44
05/16 20:00      6.66       119     13.05
05/16 21:00      6.64       117     12.73
05/16 22:00      6.53       101     12.65
05/16 23:00      6.60       111     12.65